sensor_id;sensor_type;location;lat;lon;timestamp;temperature;humidity
68912;SHT31;55953;51.650;-0.522;2022-10-30T00:01:19;15.18;86.16
68912;SHT31;55953;51.650;-0.522;2022-10-30T00:03:47;15.16;85.99
68912;SHT31;55953;51.650;-0.522;2022-10-30T00:06:16;15.12;86.12
68912;SHT31;55953;51.650;-0.522;2022-10-30T00:08:49;15.17;86.00
68912;SHT31;55953;51.650;-0.522;2022-10-30T00:11:17;15.22;85.93
68912;SHT31;55953;51.650;-0.522;2022-10-30T00:13:44;15.23;85.76
68912;SHT31;55953;51.650;-0.522;2022-10-30T00:16:12;15.18;85.77
68912;SHT31;55953;51.650;-0.522;2022-10-30T00:18:40;15.11;85.86
68912;SHT31;55953;51.650;-0.522;2022-10-30T00:21:10;15.05;86.11
68912;SHT31;55953;51.650;-0.522;2022-10-30T00:23:49;15.00;86.10
68912;SHT31;55953;51.650;-0.522;2022-10-30T00:26:20;14.92;86.32
68912;SHT31;55953;51.650;-0.522;2022-10-30T00:28:53;14.92;86.42
68912;SHT31;55953;51.650;-0.522;2022-10-30T00:31:22;14.89;86.37
68912;SHT31;55953;51.650;-0.522;2022-10-30T00:33:51;14.87;86.47
68912;SHT31;55953;51.650;-0.522;2022-10-30T00:36:21;14.87;86.42
68912;SHT31;55953;51.650;-0.522;2022-10-30T00:38:49;14.86;86.48
68912;SHT31;55953;51.650;-0.522;2022-10-30T00:41:20;14.86;86.53
68912;SHT31;55953;51.650;-0.522;2022-10-30T00:43:50;14.84;86.73
68912;SHT31;55953;51.650;-0.522;2022-10-30T00:46:27;14.82;86.94
68912;SHT31;55953;51.650;-0.522;2022-10-30T00:49:09;14.82;87.03
68912;SHT31;55953;51.650;-0.522;2022-10-30T00:51:46;14.82;87.18
68912;SHT31;55953;51.650;-0.522;2022-10-30T00:54:19;14.85;87.20
68912;SHT31;55953;51.650;-0.522;2022-10-30T00:56:50;14.86;87.08
68912;SHT31;55953;51.650;-0.522;2022-10-30T00:59:24;14.82;87.03
68912;SHT31;55953;51.650;-0.522;2022-10-30T01:01:59;14.81;87.12
68912;SHT31;55953;51.650;-0.522;2022-10-30T01:04:30;14.83;87.09
68912;SHT31;55953;51.650;-0.522;2022-10-30T01:07:09;14.80;86.88
68912;SHT31;55953;51.650;-0.522;2022-10-30T01:09:41;14.74;87.05
68912;SHT31;55953;51.650;-0.522;2022-10-30T01:12:09;14.69;86.97
68912;SHT31;55953;51.650;-0.522;2022-10-30T01:14:38;14.66;87.17
68912;SHT31;55953;51.650;-0.522;2022-10-30T01:37:33;14.38;87.20
68912;SHT31;55953;51.650;-0.522;2022-10-30T01:40:13;14.33;87.49
68912;SHT31;55953;51.650;-0.522;2022-10-30T01:42:48;14.37;87.57
68912;SHT31;55953;51.650;-0.522;2022-10-30T01:45:43;14.35;87.57
68912;SHT31;55953;51.650;-0.522;2022-10-30T01:54:12;14.23;87.92
68912;SHT31;55953;51.650;-0.522;2022-10-30T02:00:45;14.24;87.90
68912;SHT31;55953;51.650;-0.522;2022-10-30T02:03:19;14.22;87.71
68912;SHT31;55953;51.650;-0.522;2022-10-30T02:05:49;14.16;87.79
68912;SHT31;55953;51.650;-0.522;2022-10-30T02:08:20;14.10;88.03
68912;SHT31;55953;51.650;-0.522;2022-10-30T02:10:50;14.10;88.07
68912;SHT31;55953;51.650;-0.522;2022-10-30T02:13:31;14.05;87.97
68912;SHT31;55953;51.650;-0.522;2022-10-30T02:15:59;14.00;88.14
68912;SHT31;55953;51.650;-0.522;2022-10-30T02:18:27;14.00;88.20
68912;SHT31;55953;51.650;-0.522;2022-10-30T02:20:56;13.93;88.04
68912;SHT31;55953;51.650;-0.522;2022-10-30T02:23:24;13.87;88.36
68912;SHT31;55953;51.650;-0.522;2022-10-30T02:25:53;13.86;88.46
68912;SHT31;55953;51.650;-0.522;2022-10-30T02:28:21;13.86;88.53
68912;SHT31;55953;51.650;-0.522;2022-10-30T02:30:49;13.92;88.59
68912;SHT31;55953;51.650;-0.522;2022-10-30T02:33:17;14.02;88.38
68912;SHT31;55953;51.650;-0.522;2022-10-30T02:35:50;13.98;88.09
68912;SHT31;55953;51.650;-0.522;2022-10-30T02:38:19;13.97;88.18
68912;SHT31;55953;51.650;-0.522;2022-10-30T02:40:49;13.96;88.07
68912;SHT31;55953;51.650;-0.522;2022-10-30T02:43:16;13.96;87.94
68912;SHT31;55953;51.650;-0.522;2022-10-30T02:45:48;13.93;88.05
68912;SHT31;55953;51.650;-0.522;2022-10-30T02:48:17;13.93;87.91
68912;SHT31;55953;51.650;-0.522;2022-10-30T02:50:45;13.94;88.13
68912;SHT31;55953;51.650;-0.522;2022-10-30T02:53:13;13.91;87.96
68912;SHT31;55953;51.650;-0.522;2022-10-30T02:55:41;13.88;87.87
68912;SHT31;55953;51.650;-0.522;2022-10-30T02:58:09;13.82;87.73
68912;SHT31;55953;51.650;-0.522;2022-10-30T03:00:37;13.73;87.88
68912;SHT31;55953;51.650;-0.522;2022-10-30T03:03:05;13.72;87.98
68912;SHT31;55953;51.650;-0.522;2022-10-30T03:05:33;13.66;87.76
68912;SHT31;55953;51.650;-0.522;2022-10-30T03:08:00;13.61;87.66
68912;SHT31;55953;51.650;-0.522;2022-10-30T03:10:28;13.54;87.62
68912;SHT31;55953;51.650;-0.522;2022-10-30T03:12:58;13.53;87.88
68912;SHT31;55953;51.650;-0.522;2022-10-30T03:15:26;13.46;87.70
68912;SHT31;55953;51.650;-0.522;2022-10-30T03:17:54;13.39;87.86
68912;SHT31;55953;51.650;-0.522;2022-10-30T03:20:23;13.35;88.22
68912;SHT31;55953;51.650;-0.522;2022-10-30T03:22:50;13.35;88.26
68912;SHT31;55953;51.650;-0.522;2022-10-30T03:25:18;13.34;88.28
68912;SHT31;55953;51.650;-0.522;2022-10-30T03:27:53;13.34;88.29
68912;SHT31;55953;51.650;-0.522;2022-10-30T03:30:21;13.28;88.25
68912;SHT31;55953;51.650;-0.522;2022-10-30T03:32:50;13.22;88.19
68912;SHT31;55953;51.650;-0.522;2022-10-30T03:35:19;13.24;88.47
68912;SHT31;55953;51.650;-0.522;2022-10-30T03:37:47;13.29;88.45
68912;SHT31;55953;51.650;-0.522;2022-10-30T03:40:15;13.24;88.29
68912;SHT31;55953;51.650;-0.522;2022-10-30T03:42:43;13.18;88.72
68912;SHT31;55953;51.650;-0.522;2022-10-30T03:45:11;13.23;89.01
68912;SHT31;55953;51.650;-0.522;2022-10-30T03:47:40;13.23;89.03
68912;SHT31;55953;51.650;-0.522;2022-10-30T03:50:08;13.20;89.22
68912;SHT31;55953;51.650;-0.522;2022-10-30T03:52:36;13.20;89.61
68912;SHT31;55953;51.650;-0.522;2022-10-30T03:55:04;13.23;89.73
68912;SHT31;55953;51.650;-0.522;2022-10-30T03:57:35;13.33;89.73
68912;SHT31;55953;51.650;-0.522;2022-10-30T04:00:08;13.36;89.56
68912;SHT31;55953;51.650;-0.522;2022-10-30T04:02:44;13.38;89.60
68912;SHT31;55953;51.650;-0.522;2022-10-30T04:05:15;13.38;89.38
68912;SHT31;55953;51.650;-0.522;2022-10-30T04:07:46;13.41;89.46
68912;SHT31;55953;51.650;-0.522;2022-10-30T04:10:15;13.44;89.49
68912;SHT31;55953;51.650;-0.522;2022-10-30T04:12:50;13.50;89.49
68912;SHT31;55953;51.650;-0.522;2022-10-30T04:15:19;13.56;89.37
68912;SHT31;55953;51.650;-0.522;2022-10-30T04:17:47;13.50;89.17
68912;SHT31;55953;51.650;-0.522;2022-10-30T04:20:18;13.46;89.29
68912;SHT31;55953;51.650;-0.522;2022-10-30T04:22:47;13.41;89.22
68912;SHT31;55953;51.650;-0.522;2022-10-30T04:25:18;13.33;89.19
68912;SHT31;55953;51.650;-0.522;2022-10-30T04:27:48;13.34;89.32
68912;SHT31;55953;51.650;-0.522;2022-10-30T04:30:16;13.36;89.33
68912;SHT31;55953;51.650;-0.522;2022-10-30T04:32:47;13.36;89.22
68912;SHT31;55953;51.650;-0.522;2022-10-30T04:35:17;13.37;89.22
68912;SHT31;55953;51.650;-0.522;2022-10-30T04:38:00;13.29;89.00
68912;SHT31;55953;51.650;-0.522;2022-10-30T04:40:33;13.27;89.35
68912;SHT31;55953;51.650;-0.522;2022-10-30T04:43:05;13.31;89.44
68912;SHT31;55953;51.650;-0.522;2022-10-30T04:45:35;13.35;89.28
68912;SHT31;55953;51.650;-0.522;2022-10-30T04:48:06;13.38;89.25
68912;SHT31;55953;51.650;-0.522;2022-10-30T04:50:40;13.36;89.26
68912;SHT31;55953;51.650;-0.522;2022-10-30T04:53:16;13.42;89.38
68912;SHT31;55953;51.650;-0.522;2022-10-30T04:55:47;13.45;89.16
68912;SHT31;55953;51.650;-0.522;2022-10-30T04:58:21;13.47;89.13
68912;SHT31;55953;51.650;-0.522;2022-10-30T05:00:59;13.48;89.20
68912;SHT31;55953;51.650;-0.522;2022-10-30T05:03:32;13.49;89.08
68912;SHT31;55953;51.650;-0.522;2022-10-30T05:06:04;13.47;89.05
68912;SHT31;55953;51.650;-0.522;2022-10-30T05:08:39;13.48;89.09
68912;SHT31;55953;51.650;-0.522;2022-10-30T05:11:16;13.51;89.18
68912;SHT31;55953;51.650;-0.522;2022-10-30T05:13:46;13.52;88.93
68912;SHT31;55953;51.650;-0.522;2022-10-30T05:16:16;13.49;88.90
68912;SHT31;55953;51.650;-0.522;2022-10-30T05:18:43;13.47;89.05
68912;SHT31;55953;51.650;-0.522;2022-10-30T05:21:12;13.50;89.15
68912;SHT31;55953;51.650;-0.522;2022-10-30T05:23:40;13.49;89.12
68912;SHT31;55953;51.650;-0.522;2022-10-30T05:26:09;13.48;89.30
68912;SHT31;55953;51.650;-0.522;2022-10-30T05:28:36;13.49;89.27
68912;SHT31;55953;51.650;-0.522;2022-10-30T05:31:04;13.46;89.26
68912;SHT31;55953;51.650;-0.522;2022-10-30T05:33:51;13.49;89.32
68912;SHT31;55953;51.650;-0.522;2022-10-30T05:36:20;13.48;89.34
68912;SHT31;55953;51.650;-0.522;2022-10-30T05:38:48;13.48;89.33
68912;SHT31;55953;51.650;-0.522;2022-10-30T05:41:30;13.44;89.36
68912;SHT31;55953;51.650;-0.522;2022-10-30T05:43:57;13.44;89.47
68912;SHT31;55953;51.650;-0.522;2022-10-30T05:46:25;13.42;89.46
68912;SHT31;55953;51.650;-0.522;2022-10-30T05:48:54;13.40;89.58
68912;SHT31;55953;51.650;-0.522;2022-10-30T05:51:22;13.41;89.75
68912;SHT31;55953;51.650;-0.522;2022-10-30T05:53:53;13.43;89.79
68912;SHT31;55953;51.650;-0.522;2022-10-30T05:56:24;13.48;89.94
68912;SHT31;55953;51.650;-0.522;2022-10-30T05:58:52;13.58;89.87
68912;SHT31;55953;51.650;-0.522;2022-10-30T06:01:19;13.63;89.84
68912;SHT31;55953;51.650;-0.522;2022-10-30T06:03:48;13.68;89.79
68912;SHT31;55953;51.650;-0.522;2022-10-30T06:06:16;13.71;89.66
68912;SHT31;55953;51.650;-0.522;2022-10-30T06:08:44;13.72;89.58
68912;SHT31;55953;51.650;-0.522;2022-10-30T06:11:30;13.74;89.56
68912;SHT31;55953;51.650;-0.522;2022-10-30T06:14:00;13.74;89.45
68912;SHT31;55953;51.650;-0.522;2022-10-30T06:16:45;13.74;89.66
68912;SHT31;55953;51.650;-0.522;2022-10-30T06:19:32;13.74;89.77
68912;SHT31;55953;51.650;-0.522;2022-10-30T06:22:20;13.77;89.86
68912;SHT31;55953;51.650;-0.522;2022-10-30T06:24:54;13.78;89.91
68912;SHT31;55953;51.650;-0.522;2022-10-30T06:27:47;13.83;89.96
68912;SHT31;55953;51.650;-0.522;2022-10-30T06:30:16;13.87;90.06
68912;SHT31;55953;51.650;-0.522;2022-10-30T06:32:44;13.89;90.03
68912;SHT31;55953;51.650;-0.522;2022-10-30T06:35:12;13.92;90.06
68912;SHT31;55953;51.650;-0.522;2022-10-30T06:37:45;13.96;89.99
68912;SHT31;55953;51.650;-0.522;2022-10-30T06:40:17;13.96;89.95
68912;SHT31;55953;51.650;-0.522;2022-10-30T06:43:10;13.93;89.92
68912;SHT31;55953;51.650;-0.522;2022-10-30T06:45:45;13.94;89.96
68912;SHT31;55953;51.650;-0.522;2022-10-30T06:48:12;14.00;90.08
68912;SHT31;55953;51.650;-0.522;2022-10-30T06:50:45;14.06;89.86
68912;SHT31;55953;51.650;-0.522;2022-10-30T06:53:13;14.04;89.62
68912;SHT31;55953;51.650;-0.522;2022-10-30T06:55:41;14.05;89.80
68912;SHT31;55953;51.650;-0.522;2022-10-30T06:58:22;14.07;89.73
68912;SHT31;55953;51.650;-0.522;2022-10-30T07:01:06;14.12;89.83
68912;SHT31;55953;51.650;-0.522;2022-10-30T07:04:03;14.14;89.63
68912;SHT31;55953;51.650;-0.522;2022-10-30T07:06:31;14.13;89.69
68912;SHT31;55953;51.650;-0.522;2022-10-30T07:08:59;14.11;89.69
68912;SHT31;55953;51.650;-0.522;2022-10-30T07:11:27;14.09;89.80
68912;SHT31;55953;51.650;-0.522;2022-10-30T07:14:14;14.11;89.93
68912;SHT31;55953;51.650;-0.522;2022-10-30T07:17:02;14.13;89.91
68912;SHT31;55953;51.650;-0.522;2022-10-30T07:19:30;14.13;89.88
68912;SHT31;55953;51.650;-0.522;2022-10-30T07:21:59;14.13;90.01
68912;SHT31;55953;51.650;-0.522;2022-10-30T07:24:28;14.17;90.13
68912;SHT31;55953;51.650;-0.522;2022-10-30T07:27:25;14.20;90.05
68912;SHT31;55953;51.650;-0.522;2022-10-30T07:30:04;14.26;90.16
68912;SHT31;55953;51.650;-0.522;2022-10-30T07:32:42;14.35;89.99
68912;SHT31;55953;51.650;-0.522;2022-10-30T07:35:24;14.38;89.79
68912;SHT31;55953;51.650;-0.522;2022-10-30T07:38:18;14.37;89.77
68912;SHT31;55953;51.650;-0.522;2022-10-30T07:40:54;14.38;89.78
68912;SHT31;55953;51.650;-0.522;2022-10-30T07:43:43;14.43;89.83
68912;SHT31;55953;51.650;-0.522;2022-10-30T07:46:40;14.42;89.72
68912;SHT31;55953;51.650;-0.522;2022-10-30T07:49:41;14.45;89.83
68912;SHT31;55953;51.650;-0.522;2022-10-30T07:52:08;14.52;89.90
68912;SHT31;55953;51.650;-0.522;2022-10-30T07:54:44;14.55;89.72
68912;SHT31;55953;51.650;-0.522;2022-10-30T07:57:44;14.58;89.71
68912;SHT31;55953;51.650;-0.522;2022-10-30T08:00:30;14.61;89.75
68912;SHT31;55953;51.650;-0.522;2022-10-30T08:03:09;14.65;89.70
68912;SHT31;55953;51.650;-0.522;2022-10-30T08:06:05;14.68;89.77
68912;SHT31;55953;51.650;-0.522;2022-10-30T08:08:37;14.72;89.71
68912;SHT31;55953;51.650;-0.522;2022-10-30T08:11:30;14.76;89.67
68912;SHT31;55953;51.650;-0.522;2022-10-30T08:13:58;14.76;89.69
68912;SHT31;55953;51.650;-0.522;2022-10-30T08:16:26;14.81;89.71
68912;SHT31;55953;51.650;-0.522;2022-10-30T08:18:54;14.92;89.70
68912;SHT31;55953;51.650;-0.522;2022-10-30T08:21:24;15.02;89.52
68912;SHT31;55953;51.650;-0.522;2022-10-30T08:24:00;15.05;89.44
68912;SHT31;55953;51.650;-0.522;2022-10-30T08:26:30;15.01;89.37
68912;SHT31;55953;51.650;-0.522;2022-10-30T08:28:58;14.98;89.49
68912;SHT31;55953;51.650;-0.522;2022-10-30T08:31:27;14.98;89.53
68912;SHT31;55953;51.650;-0.522;2022-10-30T08:34:00;14.99;89.54
68912;SHT31;55953;51.650;-0.522;2022-10-30T08:36:34;14.94;89.52
68912;SHT31;55953;51.650;-0.522;2022-10-30T08:39:02;14.98;89.71
68912;SHT31;55953;51.650;-0.522;2022-10-30T08:41:57;14.98;89.55
68912;SHT31;55953;51.650;-0.522;2022-10-30T08:44:29;14.96;89.63
68912;SHT31;55953;51.650;-0.522;2022-10-30T08:47:17;14.99;89.75
68912;SHT31;55953;51.650;-0.522;2022-10-30T08:49:45;14.98;89.72
68912;SHT31;55953;51.650;-0.522;2022-10-30T08:52:15;14.96;89.80
68912;SHT31;55953;51.650;-0.522;2022-10-30T08:54:44;14.98;89.79
68912;SHT31;55953;51.650;-0.522;2022-10-30T08:57:12;14.97;89.85
68912;SHT31;55953;51.650;-0.522;2022-10-30T08:59:39;14.97;89.76
68912;SHT31;55953;51.650;-0.522;2022-10-30T09:02:12;14.92;89.84
68912;SHT31;55953;51.650;-0.522;2022-10-30T09:05:07;14.92;90.02
68912;SHT31;55953;51.650;-0.522;2022-10-30T09:07:59;14.89;90.00
68912;SHT31;55953;51.650;-0.522;2022-10-30T09:10:47;14.86;90.07
68912;SHT31;55953;51.650;-0.522;2022-10-30T09:13:22;14.88;90.17
68912;SHT31;55953;51.650;-0.522;2022-10-30T09:15:52;14.92;90.20
68912;SHT31;55953;51.650;-0.522;2022-10-30T09:18:20;14.93;90.15
68912;SHT31;55953;51.650;-0.522;2022-10-30T09:20:49;14.99;90.25
68912;SHT31;55953;51.650;-0.522;2022-10-30T09:23:18;15.07;90.18
68912;SHT31;55953;51.650;-0.522;2022-10-30T09:25:47;15.07;90.01
68912;SHT31;55953;51.650;-0.522;2022-10-30T09:28:24;15.11;90.07
68912;SHT31;55953;51.650;-0.522;2022-10-30T09:31:11;15.11;89.97
68912;SHT31;55953;51.650;-0.522;2022-10-30T09:33:39;15.14;89.93
68912;SHT31;55953;51.650;-0.522;2022-10-30T09:36:32;15.20;89.91
68912;SHT31;55953;51.650;-0.522;2022-10-30T09:39:03;15.30;89.90
68912;SHT31;55953;51.650;-0.522;2022-10-30T10:00:47;15.45;88.28
68912;SHT31;55953;51.650;-0.522;2022-10-30T10:06:59;15.48;87.65
68912;SHT31;55953;51.650;-0.522;2022-10-30T10:09:46;15.57;87.65
68912;SHT31;55953;51.650;-0.522;2022-10-30T10:12:44;15.68;87.54
68912;SHT31;55953;51.650;-0.522;2022-10-30T10:18:19;15.93;87.05
68912;SHT31;55953;51.650;-0.522;2022-10-30T10:20:56;16.00;86.65
68912;SHT31;55953;51.650;-0.522;2022-10-30T10:23:37;16.05;86.63
68912;SHT31;55953;51.650;-0.522;2022-10-30T10:38:32;16.10;85.63
68912;SHT31;55953;51.650;-0.522;2022-10-30T10:42:09;16.11;85.55
68912;SHT31;55953;51.650;-0.522;2022-10-30T10:50:48;16.06;85.38
68912;SHT31;55953;51.650;-0.522;2022-10-30T10:53:30;16.03;85.58
68912;SHT31;55953;51.650;-0.522;2022-10-30T10:56:11;16.03;85.38
68912;SHT31;55953;51.650;-0.522;2022-10-30T11:01:51;15.97;84.86
68912;SHT31;55953;51.650;-0.522;2022-10-30T11:07:50;16.02;84.77
68912;SHT31;55953;51.650;-0.522;2022-10-30T11:10:10;16.08;84.24
68912;SHT31;55953;51.650;-0.522;2022-10-30T11:12:41;16.15;84.38
68912;SHT31;55953;51.650;-0.522;2022-10-30T11:18:44;16.37;83.57
68912;SHT31;55953;51.650;-0.522;2022-10-30T11:21:18;16.43;83.67
68912;SHT31;55953;51.650;-0.522;2022-10-30T11:23:51;16.46;83.39
68912;SHT31;55953;51.650;-0.522;2022-10-30T11:28:48;16.52;83.21
68912;SHT31;55953;51.650;-0.522;2022-10-30T11:31:27;16.58;83.14
68912;SHT31;55953;51.650;-0.522;2022-10-30T11:36:44;16.58;82.70
68912;SHT31;55953;51.650;-0.522;2022-10-30T11:44:48;16.60;82.80
68912;SHT31;55953;51.650;-0.522;2022-10-30T11:47:18;16.67;82.61
68912;SHT31;55953;51.650;-0.522;2022-10-30T11:49:59;16.70;82.26
68912;SHT31;55953;51.650;-0.522;2022-10-30T11:52:35;16.68;82.39
68912;SHT31;55953;51.650;-0.522;2022-10-30T11:55:15;16.71;82.24
68912;SHT31;55953;51.650;-0.522;2022-10-30T11:57:50;16.75;81.82
68912;SHT31;55953;51.650;-0.522;2022-10-30T12:00:23;16.76;81.78
68912;SHT31;55953;51.650;-0.522;2022-10-30T12:02:58;16.77;82.09
68912;SHT31;55953;51.650;-0.522;2022-10-30T12:05:38;16.87;82.10
68912;SHT31;55953;51.650;-0.522;2022-10-30T12:10:43;17.01;80.89
68912;SHT31;55953;51.650;-0.522;2022-10-30T12:13:21;16.95;80.94
68912;SHT31;55953;51.650;-0.522;2022-10-30T12:16:13;16.98;81.31
68912;SHT31;55953;51.650;-0.522;2022-10-30T12:19:05;16.97;80.97
68912;SHT31;55953;51.650;-0.522;2022-10-30T12:21:45;16.87;81.02
68912;SHT31;55953;51.650;-0.522;2022-10-30T12:24:20;16.76;80.81
68912;SHT31;55953;51.650;-0.522;2022-10-30T12:26:55;16.78;80.92
68912;SHT31;55953;51.650;-0.522;2022-10-30T12:29:34;16.80;80.53
68912;SHT31;55953;51.650;-0.522;2022-10-30T12:32:36;16.75;80.16
68912;SHT31;55953;51.650;-0.522;2022-10-30T12:35:20;16.73;80.29
68912;SHT31;55953;51.650;-0.522;2022-10-30T12:38:02;16.70;80.48
68912;SHT31;55953;51.650;-0.522;2022-10-30T12:40:43;16.73;80.44
68912;SHT31;55953;51.650;-0.522;2022-10-30T12:43:41;16.67;80.21
68912;SHT31;55953;51.650;-0.522;2022-10-30T13:04:14;16.55;79.66
68912;SHT31;55953;51.650;-0.522;2022-10-30T13:06:54;16.53;79.29
68912;SHT31;55953;51.650;-0.522;2022-10-30T13:09:36;16.52;79.29
68912;SHT31;55953;51.650;-0.522;2022-10-30T13:12:14;16.51;79.46
68912;SHT31;55953;51.650;-0.522;2022-10-30T13:14:51;16.45;79.12
68912;SHT31;55953;51.650;-0.522;2022-10-30T13:17:24;16.49;79.25
68912;SHT31;55953;51.650;-0.522;2022-10-30T13:19:52;16.56;79.07
68912;SHT31;55953;51.650;-0.522;2022-10-30T13:25:20;16.70;78.66
68912;SHT31;55953;51.650;-0.522;2022-10-30T13:27:59;16.88;78.99
68912;SHT31;55953;51.650;-0.522;2022-10-30T13:30:42;17.17;78.17
68912;SHT31;55953;51.650;-0.522;2022-10-30T13:53:41;17.32;76.52
68912;SHT31;55953;51.650;-0.522;2022-10-30T13:56:14;17.25;76.84
68912;SHT31;55953;51.650;-0.522;2022-10-30T13:58:55;17.28;77.08
68912;SHT31;55953;51.650;-0.522;2022-10-30T14:01:42;17.37;76.92
68912;SHT31;55953;51.650;-0.522;2022-10-30T14:04:39;17.37;76.46
68912;SHT31;55953;51.650;-0.522;2022-10-30T14:10:23;17.38;76.49
68912;SHT31;55953;51.650;-0.522;2022-10-30T14:16:01;17.29;76.73
68912;SHT31;55953;51.650;-0.522;2022-10-30T14:18:47;17.24;77.14
68912;SHT31;55953;51.650;-0.522;2022-10-30T14:21:29;17.31;76.68
68912;SHT31;55953;51.650;-0.522;2022-10-30T14:24:28;17.45;76.34
68912;SHT31;55953;51.650;-0.522;2022-10-30T14:29:35;17.58;75.83
68912;SHT31;55953;51.650;-0.522;2022-10-30T14:37:13;17.50;75.38
68912;SHT31;55953;51.650;-0.522;2022-10-30T14:39:41;17.33;75.36
68912;SHT31;55953;51.650;-0.522;2022-10-30T14:42:25;17.14;75.59
68912;SHT31;55953;51.650;-0.522;2022-10-30T14:45:11;16.97;75.43
68912;SHT31;55953;51.650;-0.522;2022-10-30T14:47:49;16.83;76.22
68912;SHT31;55953;51.650;-0.522;2022-10-30T14:56:45;16.86;77.20
68912;SHT31;55953;51.650;-0.522;2022-10-30T15:04:22;16.90;77.52
68912;SHT31;55953;51.650;-0.522;2022-10-30T15:10:19;16.71;77.19
68912;SHT31;55953;51.650;-0.522;2022-10-30T15:13:05;16.54;77.18
68912;SHT31;55953;51.650;-0.522;2022-10-30T15:16:07;16.45;77.51
68912;SHT31;55953;51.650;-0.522;2022-10-30T15:18:35;16.39;77.54
68912;SHT31;55953;51.650;-0.522;2022-10-30T15:21:06;16.38;77.33
68912;SHT31;55953;51.650;-0.522;2022-10-30T15:23:35;16.34;77.72
68912;SHT31;55953;51.650;-0.522;2022-10-30T15:26:04;16.31;78.00
68912;SHT31;55953;51.650;-0.522;2022-10-30T15:28:52;16.30;78.21
68912;SHT31;55953;51.650;-0.522;2022-10-30T15:31:22;16.28;78.40
68912;SHT31;55953;51.650;-0.522;2022-10-30T15:33:52;16.26;78.37
68912;SHT31;55953;51.650;-0.522;2022-10-30T15:36:22;16.24;78.75
68912;SHT31;55953;51.650;-0.522;2022-10-30T15:39:04;16.20;79.00
68912;SHT31;55953;51.650;-0.522;2022-10-30T15:41:39;16.12;78.86
68912;SHT31;55953;51.650;-0.522;2022-10-30T15:44:12;16.09;79.04
68912;SHT31;55953;51.650;-0.522;2022-10-30T15:46:46;16.04;79.08
68912;SHT31;55953;51.650;-0.522;2022-10-30T15:49:27;15.97;79.01
68912;SHT31;55953;51.650;-0.522;2022-10-30T15:52:00;15.94;79.27
68912;SHT31;55953;51.650;-0.522;2022-10-30T15:54:32;15.88;79.37
68912;SHT31;55953;51.650;-0.522;2022-10-30T15:57:00;15.83;79.60
68912;SHT31;55953;51.650;-0.522;2022-10-30T15:59:49;15.78;79.88
68912;SHT31;55953;51.650;-0.522;2022-10-30T16:02:23;15.73;80.03
68912;SHT31;55953;51.650;-0.522;2022-10-30T16:04:53;15.70;80.20
68912;SHT31;55953;51.650;-0.522;2022-10-30T16:07:22;15.64;80.33
68912;SHT31;55953;51.650;-0.522;2022-10-30T16:09:57;15.59;80.44
68912;SHT31;55953;51.650;-0.522;2022-10-30T16:12:32;15.52;80.58
68912;SHT31;55953;51.650;-0.522;2022-10-30T16:15:06;15.45;80.83
68912;SHT31;55953;51.650;-0.522;2022-10-30T16:17:46;15.38;80.92
68912;SHT31;55953;51.650;-0.522;2022-10-30T16:20:20;15.32;81.11
68912;SHT31;55953;51.650;-0.522;2022-10-30T16:22:49;15.25;81.31
68912;SHT31;55953;51.650;-0.522;2022-10-30T16:25:17;15.19;81.44
68912;SHT31;55953;51.650;-0.522;2022-10-30T16:27:47;15.15;81.60
68912;SHT31;55953;51.650;-0.522;2022-10-30T16:30:15;15.09;81.86
68912;SHT31;55953;51.650;-0.522;2022-10-30T16:32:44;15.04;82.05
68912;SHT31;55953;51.650;-0.522;2022-10-30T16:35:19;14.95;82.33
68912;SHT31;55953;51.650;-0.522;2022-10-30T16:37:50;14.89;82.45
68912;SHT31;55953;51.650;-0.522;2022-10-30T16:40:21;14.80;82.70
68912;SHT31;55953;51.650;-0.522;2022-10-30T16:42:58;14.70;83.08
68912;SHT31;55953;51.650;-0.522;2022-10-30T16:48:01;14.62;83.20
68912;SHT31;55953;51.650;-0.522;2022-10-30T16:50:39;14.56;83.33
68912;SHT31;55953;51.650;-0.522;2022-10-30T16:53:16;14.53;83.42
68912;SHT31;55953;51.650;-0.522;2022-10-30T16:55:49;14.47;83.47
68912;SHT31;55953;51.650;-0.522;2022-10-30T16:58:19;14.46;83.54
68912;SHT31;55953;51.650;-0.522;2022-10-30T17:00:51;14.45;83.52
68912;SHT31;55953;51.650;-0.522;2022-10-30T17:03:23;14.42;83.64
68912;SHT31;55953;51.650;-0.522;2022-10-30T17:05:55;14.40;83.57
68912;SHT31;55953;51.650;-0.522;2022-10-30T17:08:41;14.38;83.58
68912;SHT31;55953;51.650;-0.522;2022-10-30T17:11:19;14.34;83.62
68912;SHT31;55953;51.650;-0.522;2022-10-30T17:14:17;14.29;83.68
68912;SHT31;55953;51.650;-0.522;2022-10-30T17:16:55;14.24;83.78
68912;SHT31;55953;51.650;-0.522;2022-10-30T17:22:00;14.16;83.91
68912;SHT31;55953;51.650;-0.522;2022-10-30T17:24:34;14.12;83.98
68912;SHT31;55953;51.650;-0.522;2022-10-30T17:27:06;14.08;84.09
68912;SHT31;55953;51.650;-0.522;2022-10-30T17:33:23;13.98;84.16
68912;SHT31;55953;51.650;-0.522;2022-10-30T17:36:03;13.97;84.29
68912;SHT31;55953;51.650;-0.522;2022-10-30T17:38:33;13.92;84.32
68912;SHT31;55953;51.650;-0.522;2022-10-30T17:41:01;13.86;84.54
68912;SHT31;55953;51.650;-0.522;2022-10-30T17:43:30;13.82;84.62
68912;SHT31;55953;51.650;-0.522;2022-10-30T17:46:01;13.77;84.61
68912;SHT31;55953;51.650;-0.522;2022-10-30T17:48:29;13.76;84.75
68912;SHT31;55953;51.650;-0.522;2022-10-30T17:50:56;13.73;84.90
68912;SHT31;55953;51.650;-0.522;2022-10-30T17:53:25;13.71;84.93
68912;SHT31;55953;51.650;-0.522;2022-10-30T17:56:03;13.71;84.93
68912;SHT31;55953;51.650;-0.522;2022-10-30T17:58:39;13.66;84.88
68912;SHT31;55953;51.650;-0.522;2022-10-30T18:01:09;13.66;84.95
68912;SHT31;55953;51.650;-0.522;2022-10-30T18:03:43;13.62;85.01
68912;SHT31;55953;51.650;-0.522;2022-10-30T18:06:15;13.57;85.04
68912;SHT31;55953;51.650;-0.522;2022-10-30T18:08:49;13.57;85.00
68912;SHT31;55953;51.650;-0.522;2022-10-30T18:11:22;13.55;85.05
68912;SHT31;55953;51.650;-0.522;2022-10-30T18:13:51;13.53;85.10
68912;SHT31;55953;51.650;-0.522;2022-10-30T18:16:19;13.51;85.19
68912;SHT31;55953;51.650;-0.522;2022-10-30T18:18:47;13.49;85.08
68912;SHT31;55953;51.650;-0.522;2022-10-30T18:21:17;13.44;85.14
68912;SHT31;55953;51.650;-0.522;2022-10-30T18:23:49;13.45;85.21
68912;SHT31;55953;51.650;-0.522;2022-10-30T18:26:21;13.39;85.26
68912;SHT31;55953;51.650;-0.522;2022-10-30T18:28:52;13.35;85.41
68912;SHT31;55953;51.650;-0.522;2022-10-30T18:31:22;13.33;85.43
68912;SHT31;55953;51.650;-0.522;2022-10-30T18:33:51;13.31;85.49
68912;SHT31;55953;51.650;-0.522;2022-10-30T18:36:19;13.31;85.51
68912;SHT31;55953;51.650;-0.522;2022-10-30T18:38:50;13.31;85.47
68912;SHT31;55953;51.650;-0.522;2022-10-30T18:44:00;13.30;85.43
68912;SHT31;55953;51.650;-0.522;2022-10-30T18:46:28;13.25;85.59
68912;SHT31;55953;51.650;-0.522;2022-10-30T18:48:59;13.24;85.71
68912;SHT31;55953;51.650;-0.522;2022-10-30T18:51:27;13.23;85.61
68912;SHT31;55953;51.650;-0.522;2022-10-30T18:53:55;13.18;85.75
68912;SHT31;55953;51.650;-0.522;2022-10-30T18:56:24;13.15;85.91
68912;SHT31;55953;51.650;-0.522;2022-10-30T18:58:58;13.18;85.91